Time;durP1;ratioP1;P1;durP2;ratioP2;P2;SDS_P1;SDS_P2;PMS_P1;PMS_P2;Temp;Humidity;BMP_temperature;BMP_pressure;BME280_temperature;BME280_humidity;BME280_pressure;Samples;Min_cycle;Max_cycle;Signal;HPM_P1;HPM_P2
2023/06/25 00:01:18;;;;;;;8.52;4.82;;;;;;;;;;5092418;28;20024;-67
2023/06/25 00:03:43;;;;;;;8.43;4.80;;;;;;;;;;5092462;28;20110;-66
2023/06/25 00:06:09;;;;;;;8.80;4.63;;;;;;;;;;5092650;28;20020;-67
2023/06/25 00:08:34;;;;;;;8.50;4.75;;;;;;;;;;5092523;28;20031;-67
2023/06/25 00:11:00;;;;;;;6.97;5.15;;;;;;;;;;5094980;28;20032;-65
2023/06/25 00:13:25;;;;;;;11.50;5.65;;;;;;;;;;5096545;28;20115;-66
2023/06/25 00:15:50;;;;;;;9.45;5.30;;;;;;;;;;5096505;28;20551;-67
2023/06/25 00:18:16;;;;;;;8.40;5.07;;;;;;;;;;5078502;28;20058;-67
2023/06/25 00:20:42;;;;;;;9.27;5.13;;;;;;;;;;5096589;28;20073;-67
2023/06/25 00:23:07;;;;;;;11.77;6.47;;;;;;;;;;5096525;28;20093;-65
2023/06/25 00:25:33;;;;;;;11.32;8.05;;;;;;;;;;5096527;28;20469;-67
2023/06/25 00:28:00;;;;;;;10.88;7.43;;;;;;;;;;5096403;28;20026;-66
2023/06/25 00:30:25;;;;;;;8.48;6.90;;;;;;;;;;5077969;28;20066;-67
2023/06/25 00:32:54;;;;;;;14.98;8.20;;;;;;;;;;5096296;28;20466;-66
2023/06/25 00:35:24;;;;;;;14.02;8.48;;;;;;;;;;5096189;28;20495;-66
2023/06/25 00:37:51;;;;;;;15.43;8.55;;;;;;;;;;5096147;28;20116;-66
2023/06/25 00:40:17;;;;;;;14.82;8.93;;;;;;;;;;5110515;28;20038;-68
2023/06/25 00:42:43;;;;;;;12.48;8.07;;;;;;;;;;5116616;28;20103;-67
2023/06/25 00:45:10;;;;;;;12.40;8.32;;;;;;;;;;5115539;28;20027;-66
2023/06/25 00:47:37;;;;;;;13.65;8.05;;;;;;;;;;5095919;28;20501;-66
2023/06/25 00:50:04;;;;;;;13.13;7.15;;;;;;;;;;5096148;28;20023;-66
2023/06/25 00:52:29;;;;;;;13.45;6.82;;;;;;;;;;5095991;28;20031;-66
2023/06/25 00:54:55;;;;;;;12.88;6.63;;;;;;;;;;5096066;28;20474;-67
2023/06/25 00:57:21;;;;;;;9.68;6.72;;;;;;;;;;5096148;28;20462;-66
2023/06/25 00:59:48;;;;;;;11.50;7.15;;;;;;;;;;5095813;28;20420;-66
2023/06/25 01:02:35;;;;;;;9.20;6.43;;;;;;;;;;5095942;28;20036;-66
2023/06/25 01:05:20;;;;;;;10.40;5.88;;;;;;;;;;5095806;28;20481;-66
2023/06/25 01:07:47;;;;;;;11.70;6.88;;;;;;;;;;5095857;28;20346;-66
2023/06/25 01:10:13;;;;;;;10.88;6.82;;;;;;;;;;5095768;28;20032;-66
2023/06/25 01:12:40;;;;;;;10.52;6.80;;;;;;;;;;5095622;28;20032;-66
2023/06/25 01:15:06;;;;;;;13.43;7.00;;;;;;;;;;5095418;28;20073;-67
2023/06/25 01:17:32;;;;;;;12.43;7.22;;;;;;;;;;5095420;28;20108;-66
2023/06/25 01:19:58;;;;;;;10.02;6.90;;;;;;;;;;5095599;28;20060;-66
2023/06/25 01:22:29;;;;;;;11.85;7.45;;;;;;;;;;5076414;28;20369;-66
2023/06/25 01:24:55;;;;;;;11.90;7.32;;;;;;;;;;5095606;28;20089;-66
2023/06/25 01:27:22;;;;;;;10.45;6.40;;;;;;;;;;5095470;28;20034;-67
2023/06/25 01:29:48;;;;;;;9.75;6.63;;;;;;;;;;5095183;28;20031;-66
2023/06/25 01:32:14;;;;;;;11.40;6.93;;;;;;;;;;5095280;28;20085;-66
2023/06/25 01:34:40;;;;;;;10.50;6.35;;;;;;;;;;5095202;28;20055;-66
2023/06/25 01:37:06;;;;;;;10.43;6.10;;;;;;;;;;5095196;28;20056;-66
2023/06/25 01:39:32;;;;;;;10.45;6.47;;;;;;;;;;5103181;28;20448;-66
2023/06/25 01:41:57;;;;;;;10.63;6.55;;;;;;;;;;5115417;28;20063;-66
2023/06/25 01:44:28;;;;;;;11.88;6.40;;;;;;;;;;5115096;28;20028;-66
2023/06/25 01:46:54;;;;;;;11.32;6.38;;;;;;;;;;5099804;28;20058;-66
2023/06/25 01:49:20;;;;;;;9.55;6.00;;;;;;;;;;5095005;28;20027;-67
2023/06/25 01:51:45;;;;;;;11.45;6.38;;;;;;;;;;5094800;28;20107;-66
2023/06/25 01:54:11;;;;;;;11.35;6.45;;;;;;;;;;5094944;28;20377;-67
2023/06/25 01:56:36;;;;;;;8.90;5.95;;;;;;;;;;5094914;28;20483;-66
2023/06/25 01:59:02;;;;;;;9.52;6.63;;;;;;;;;;5094757;28;20541;-66
2023/06/25 02:01:29;;;;;;;9.80;6.35;;;;;;;;;;5094808;28;20028;-66
2023/06/25 02:03:54;;;;;;;8.70;5.90;;;;;;;;;;5094483;28;20040;-67
2023/06/25 02:06:20;;;;;;;11.10;6.20;;;;;;;;;;5094626;28;20060;-66
2023/06/25 02:08:45;;;;;;;12.23;6.18;;;;;;;;;;5094500;28;20028;-67
2023/06/25 02:11:11;;;;;;;10.50;6.30;;;;;;;;;;5094508;28;20028;-66
2023/06/25 02:13:36;;;;;;;11.02;6.88;;;;;;;;;;5093927;28;20031;-66
2023/06/25 02:16:02;;;;;;;10.65;6.10;;;;;;;;;;5094532;28;20031;-66
2023/06/25 02:18:29;;;;;;;11.70;6.65;;;;;;;;;;5094477;28;20035;-66
2023/06/25 02:20:54;;;;;;;12.20;6.75;;;;;;;;;;5094524;28;20020;-68
2023/06/25 02:23:20;;;;;;;8.40;5.65;;;;;;;;;;5094293;28;20024;-66
2023/06/25 02:25:46;;;;;;;10.75;6.22;;;;;;;;;;5094208;28;20039;-67
2023/06/25 02:28:12;;;;;;;13.60;5.95;;;;;;;;;;5094255;28;20032;-68
2023/06/25 02:30:37;;;;;;;9.38;5.70;;;;;;;;;;5094170;28;20031;-66
2023/06/25 02:33:03;;;;;;;9.70;6.15;;;;;;;;;;5093965;28;20035;-66
2023/06/25 02:35:28;;;;;;;10.32;6.53;;;;;;;;;;5094031;28;20086;-66
2023/06/25 02:37:53;;;;;;;13.77;6.13;;;;;;;;;;5093897;28;20024;-65
2023/06/25 02:40:19;;;;;;;9.65;6.20;;;;;;;;;;5108403;28;20032;-67
2023/06/25 02:42:45;;;;;;;9.55;5.68;;;;;;;;;;5114422;28;20381;-67
2023/06/25 02:45:10;;;;;;;12.52;6.20;;;;;;;;;;5113247;28;20027;-67
2023/06/25 02:47:36;;;;;;;9.95;5.72;;;;;;;;;;5093776;28;20063;-66
2023/06/25 02:50:01;;;;;;;11.70;6.10;;;;;;;;;;5093849;28;20032;-67
2023/06/25 02:52:27;;;;;;;14.60;6.50;;;;;;;;;;5093678;28;20038;-67
2023/06/25 02:54:52;;;;;;;9.85;6.22;;;;;;;;;;5093450;28;20032;-68
2023/06/25 02:57:17;;;;;;;8.60;5.68;;;;;;;;;;5093672;28;20397;-67
2023/06/25 02:59:43;;;;;;;10.93;6.05;;;;;;;;;;5093682;28;20016;-66
2023/06/25 03:02:08;;;;;;;10.85;6.53;;;;;;;;;;5093708;28;20028;-66
2023/06/25 03:04:34;;;;;;;11.20;6.90;;;;;;;;;;5093444;28;20028;-66
2023/06/25 03:06:59;;;;;;;10.95;6.47;;;;;;;;;;5093523;28;20035;-65
2023/06/25 03:09:25;;;;;;;11.10;6.60;;;;;;;;;;5093271;28;20031;-66
2023/06/25 03:11:50;;;;;;;12.73;5.93;;;;;;;;;;5093542;28;20499;-66
2023/06/25 03:14:16;;;;;;;15.40;5.85;;;;;;;;;;5093368;28;20469;-66
2023/06/25 03:16:42;;;;;;;10.00;5.97;;;;;;;;;;5093360;28;20040;-66
2023/06/25 03:19:07;;;;;;;13.57;6.75;;;;;;;;;;5093236;28;20035;-66
2023/06/25 03:21:33;;;;;;;11.40;6.43;;;;;;;;;;5093112;28;20028;-66
2023/06/25 03:23:58;;;;;;;13.88;6.70;;;;;;;;;;5092885;28;20028;-66
2023/06/25 03:26:23;;;;;;;10.48;5.70;;;;;;;;;;5092904;28;20016;-65
2023/06/25 03:28:50;;;;;;;9.18;5.63;;;;;;;;;;5093111;28;20032;-66
2023/06/25 03:31:16;;;;;;;10.25;5.47;;;;;;;;;;5093105;28;20028;-67
2023/06/25 03:33:41;;;;;;;9.73;6.20;;;;;;;;;;5092923;28;20027;-66
2023/06/25 03:36:07;;;;;;;8.45;5.40;;;;;;;;;;5093030;28;20449;-66
2023/06/25 03:38:32;;;;;;;11.27;6.07;;;;;;;;;;5092643;28;20095;-66
2023/06/25 03:40:58;;;;;;;12.48;5.70;;;;;;;;;;5112999;28;20169;-66
2023/06/25 03:43:23;;;;;;;9.77;5.95;;;;;;;;;;5113204;28;20464;-66
2023/06/25 03:45:49;;;;;;;9.70;5.50;;;;;;;;;;5106309;28;20024;-66
2023/06/25 03:48:14;;;;;;;8.68;5.85;;;;;;;;;;5092555;28;20131;-66
2023/06/25 03:50:40;;;;;;;12.15;5.93;;;;;;;;;;5092732;28;20024;-65
2023/06/25 03:53:05;;;;;;;7.30;4.88;;;;;;;;;;5092562;28;20405;-66
2023/06/25 03:55:30;;;;;;;7.95;4.75;;;;;;;;;;5092788;28;20036;-66
2023/06/25 03:57:56;;;;;;;9.27;5.55;;;;;;;;;;5092708;28;20020;-67
2023/06/25 04:00:22;;;;;;;9.55;5.10;;;;;;;;;;5092810;28;20362;-67
2023/06/25 04:02:47;;;;;;;7.65;4.78;;;;;;;;;;5092680;28;20108;-66
2023/06/25 04:05:13;;;;;;;10.45;5.95;;;;;;;;;;5092504;28;20410;-66
2023/06/25 04:07:38;;;;;;;10.32;6.00;;;;;;;;;;5092403;28;20032;-66
2023/06/25 04:10:04;;;;;;;12.70;5.80;;;;;;;;;;5092675;28;20020;-66
2023/06/25 04:12:30;;;;;;;9.27;6.15;;;;;;;;;;5092533;28;20024;-65
2023/06/25 04:14:55;;;;;;;10.13;6.13;;;;;;;;;;5092614;28;20426;-66
2023/06/25 04:17:20;;;;;;;9.15;5.70;;;;;;;;;;5092522;28;20035;-67
2023/06/25 04:19:46;;;;;;;10.80;5.90;;;;;;;;;;5092451;28;20024;-66
2023/06/25 04:22:11;;;;;;;13.88;5.97;;;;;;;;;;5074164;28;20085;-66
2023/06/25 04:24:37;;;;;;;8.38;5.93;;;;;;;;;;5092367;28;20085;-66
2023/06/25 04:27:04;;;;;;;8.60;5.85;;;;;;;;;;5092474;28;20024;-66
2023/06/25 04:29:29;;;;;;;8.70;5.13;;;;;;;;;;5092542;28;20478;-66
2023/06/25 04:31:55;;;;;;;8.15;5.50;;;;;;;;;;5092302;28;20053;-68
2023/06/25 04:34:20;;;;;;;9.57;6.07;;;;;;;;;;5092339;28;20017;-66
2023/06/25 04:36:46;;;;;;;15.57;5.75;;;;;;;;;;5092205;28;20450;-66
2023/06/25 04:39:11;;;;;;;13.25;6.07;;;;;;;;;;5097373;28;20031;-67
2023/06/25 04:41:36;;;;;;;9.80;5.43;;;;;;;;;;5112028;28;20057;-67
2023/06/25 04:44:02;;;;;;;9.20;5.82;;;;;;;;;;5078537;28;20024;-67
2023/06/25 04:46:27;;;;;;;13.00;5.57;;;;;;;;;;5083209;28;21064;-69
2023/06/25 04:48:53;;;;;;;8.80;5.78;;;;;;;;;;5092508;28;20020;-67
2023/06/25 04:51:18;;;;;;;12.45;5.78;;;;;;;;;;5092124;28;20389;-66
2023/06/25 04:53:44;;;;;;;12.93;5.90;;;;;;;;;;5092184;28;20051;-66
2023/06/25 04:56:09;;;;;;;8.82;5.50;;;;;;;;;;5092290;28;20028;-67
2023/06/25 04:58:35;;;;;;;12.18;5.60;;;;;;;;;;5095190;28;20035;-67
2023/06/25 05:01:02;;;;;;;8.48;5.65;;;;;;;;;;5096023;28;20031;-66
2023/06/25 05:03:28;;;;;;;10.38;5.50;;;;;;;;;;5095916;28;20026;-69
2023/06/25 05:05:54;;;;;;;9.95;5.70;;;;;;;;;;5095847;28;20461;-66
2023/06/25 05:08:20;;;;;;;8.82;5.68;;;;;;;;;;5095980;28;20054;-67
2023/06/25 05:10:45;;;;;;;11.07;6.07;;;;;;;;;;5096087;28;20414;-66
2023/06/25 05:13:11;;;;;;;8.93;5.80;;;;;;;;;;5095765;28;20032;-67
2023/06/25 05:15:38;;;;;;;8.23;6.10;;;;;;;;;;5095956;28;20515;-67
2023/06/25 05:18:03;;;;;;;8.88;5.80;;;;;;;;;;5095919;28;20024;-67
2023/06/25 05:20:35;;;;;;;8.02;5.70;;;;;;;;;;5095236;28;20117;-66
2023/06/25 05:23:01;;;;;;;9.40;5.68;;;;;;;;;;5095823;28;20035;-67
2023/06/25 05:25:26;;;;;;;8.48;5.65;;;;;;;;;;5095744;28;20024;-67
2023/06/25 05:27:52;;;;;;;8.90;5.10;;;;;;;;;;5095455;28;20031;-66
2023/06/25 05:30:17;;;;;;;7.97;5.35;;;;;;;;;;5095383;28;20028;-66
2023/06/25 05:32:42;;;;;;;12.15;5.75;;;;;;;;;;5095298;28;20112;-66
2023/06/25 05:35:08;;;;;;;8.73;5.25;;;;;;;;;;5095033;28;20388;-66
2023/06/25 05:37:33;;;;;;;7.78;5.10;;;;;;;;;;5095160;28;20020;-67
2023/06/25 05:39:59;;;;;;;8.60;5.65;;;;;;;;;;5106907;28;20530;-66
2023/06/25 05:42:24;;;;;;;8.68;5.53;;;;;;;;;;5115515;28;20032;-66
2023/06/25 05:44:50;;;;;;;7.53;5.28;;;;;;;;;;5115602;28;20050;-66
2023/06/25 05:47:15;;;;;;;8.00;5.45;;;;;;;;;;5096865;28;20106;-66
2023/06/25 05:49:40;;;;;;;9.38;5.05;;;;;;;;;;5094871;28;20496;-66
2023/06/25 05:52:06;;;;;;;8.13;5.15;;;;;;;;;;5094932;28;20056;-66
2023/06/25 05:54:31;;;;;;;6.57;4.63;;;;;;;;;;5094970;28;20111;-66
2023/06/25 05:56:57;;;;;;;7.22;4.63;;;;;;;;;;5094979;28;20469;-67
2023/06/25 05:59:23;;;;;;;5.82;4.68;;;;;;;;;;5094817;28;20020;-67
2023/06/25 06:01:49;;;;;;;6.82;4.90;;;;;;;;;;5094611;28;20374;-67
2023/06/25 06:04:14;;;;;;;8.05;4.75;;;;;;;;;;5094407;28;20178;-67
2023/06/25 06:06:40;;;;;;;7.90;4.40;;;;;;;;;;5094440;28;20047;-67
2023/06/25 06:09:05;;;;;;;6.53;5.10;;;;;;;;;;5094130;28;20512;-67
2023/06/25 06:11:31;;;;;;;7.90;4.70;;;;;;;;;;5094581;28;20032;-67
2023/06/25 06:13:56;;;;;;;6.90;5.10;;;;;;;;;;5094523;28;20166;-67
2023/06/25 06:16:22;;;;;;;7.32;4.82;;;;;;;;;;5094461;28;20032;-67
2023/06/25 06:18:47;;;;;;;6.18;4.45;;;;;;;;;;5094060;28;20042;-67
2023/06/25 06:21:13;;;;;;;8.35;4.50;;;;;;;;;;5094220;28;20024;-66
2023/06/25 06:23:38;;;;;;;7.20;4.30;;;;;;;;;;5094278;28;20047;-66
2023/06/25 06:26:03;;;;;;;7.63;4.75;;;;;;;;;;5094458;28;20089;-66
2023/06/25 06:28:29;;;;;;;5.45;4.00;;;;;;;;;;5094211;28;20069;-65
2023/06/25 06:30:54;;;;;;;6.97;4.38;;;;;;;;;;5094275;28;20043;-67
2023/06/25 06:33:20;;;;;;;6.80;4.53;;;;;;;;;;5093773;28;20032;-67
2023/06/25 06:35:45;;;;;;;7.35;4.50;;;;;;;;;;5093962;28;20123;-66
2023/06/25 06:38:10;;;;;;;7.43;4.50;;;;;;;;;;5093805;28;20096;-67
2023/06/25 06:40:36;;;;;;;6.05;4.65;;;;;;;;;;5111080;28;20095;-68
2023/06/25 06:43:01;;;;;;;6.60;4.70;;;;;;;;;;5114218;28;20035;-66
2023/06/25 06:45:27;;;;;;;6.80;4.57;;;;;;;;;;5111332;28;20024;-66
2023/06/25 06:47:52;;;;;;;8.68;4.30;;;;;;;;;;5093592;28;20040;-66
2023/06/25 06:50:17;;;;;;;6.68;4.28;;;;;;;;;;5093899;28;20020;-67
2023/06/25 06:52:43;;;;;;;6.13;4.20;;;;;;;;;;5093785;28;20035;-67
2023/06/25 06:55:10;;;;;;;7.85;4.97;;;;;;;;;;5093719;28;20024;-70
2023/06/25 06:57:36;;;;;;;6.32;4.28;;;;;;;;;;5093786;28;20540;-67
2023/06/25 07:00:03;;;;;;;6.63;4.63;;;;;;;;;;5093789;28;20538;-67
2023/06/25 07:02:29;;;;;;;5.75;4.47;;;;;;;;;;5093472;28;20020;-66
2023/06/25 07:04:54;;;;;;;5.88;4.18;;;;;;;;;;5093549;28;20045;-67
2023/06/25 07:07:20;;;;;;;7.00;4.60;;;;;;;;;;5093477;28;20107;-68
2023/06/25 07:09:53;;;;;;;6.45;4.60;;;;;;;;;;5093525;28;20112;-67
2023/06/25 07:12:20;;;;;;;6.05;4.13;;;;;;;;;;5093494;28;20020;-67
2023/06/25 07:14:45;;;;;;;7.55;4.50;;;;;;;;;;5093522;28;20385;-68
2023/06/25 07:17:11;;;;;;;14.07;4.70;;;;;;;;;;5093164;28;20099;-67
2023/06/25 07:19:36;;;;;;;6.30;4.40;;;;;;;;;;5092671;28;20104;-66
2023/06/25 07:22:02;;;;;;;6.35;4.55;;;;;;;;;;5093029;28;20027;-66
2023/06/25 07:24:27;;;;;;;6.43;4.30;;;;;;;;;;5093296;28;20377;-67
2023/06/25 07:26:52;;;;;;;6.75;4.05;;;;;;;;;;5093292;28;20032;-67
2023/06/25 07:29:18;;;;;;;7.78;4.50;;;;;;;;;;5093146;28;20021;-70
2023/06/25 07:31:43;;;;;;;6.18;4.38;;;;;;;;;;5092957;28;20039;-67
2023/06/25 07:34:09;;;;;;;9.02;4.68;;;;;;;;;;5093232;28;20024;-68
2023/06/25 07:36:34;;;;;;;6.28;4.47;;;;;;;;;;5093061;28;20049;-67
2023/06/25 07:39:03;;;;;;;11.68;4.38;;;;;;;;;;5096297;28;20051;-66
2023/06/25 07:41:28;;;;;;;6.70;4.38;;;;;;;;;;5113386;28;20031;-69
2023/06/25 07:43:55;;;;;;;5.72;4.22;;;;;;;;;;5113296;28;20469;-67
2023/06/25 07:46:23;;;;;;;7.05;4.25;;;;;;;;;;5102334;28;20024;-67
2023/06/25 07:48:49;;;;;;;8.65;4.40;;;;;;;;;;5074673;28;20396;-67
2023/06/25 07:51:15;;;;;;;7.88;3.85;;;;;;;;;;5092868;28;20027;-67
2023/06/25 07:53:40;;;;;;;5.57;3.65;;;;;;;;;;5092563;28;20091;-67
2023/06/25 07:56:05;;;;;;;9.63;4.40;;;;;;;;;;5072462;28;20039;-66
2023/06/25 07:58:33;;;;;;;8.30;3.90;;;;;;;;;;5092250;28;20016;-67
2023/06/25 08:00:58;;;;;;;5.72;4.00;;;;;;;;;;5092529;28;20038;-67
2023/06/25 08:03:24;;;;;;;4.82;3.58;;;;;;;;;;5092529;28;20020;-67
2023/06/25 08:05:49;;;;;;;4.00;3.35;;;;;;;;;;5092483;28;20210;-68
2023/06/25 08:08:15;;;;;;;6.30;3.60;;;;;;;;;;5092476;28;20419;-67
2023/06/25 08:10:40;;;;;;;7.25;3.42;;;;;;;;;;5092436;28;20042;-69
2023/06/25 08:13:06;;;;;;;6.90;3.42;;;;;;;;;;5092357;28;20028;-66
2023/06/25 08:15:31;;;;;;;5.63;3.65;;;;;;;;;;5087998;28;20033;-68
2023/06/25 08:17:57;;;;;;;6.97;3.55;;;;;;;;;;5076204;28;20386;-68
2023/06/25 08:20:22;;;;;;;4.80;3.50;;;;;;;;;;5071965;28;20467;-72
2023/06/25 08:22:48;;;;;;;5.25;3.60;;;;;;;;;;5084988;28;20024;-70
2023/06/25 08:25:25;;;;;;;5.80;3.50;;;;;;;;;;5092463;28;20130;-71
2023/06/25 08:27:50;;;;;;;5.63;3.17;;;;;;;;;;5092271;28;20419;-69
2023/06/25 08:30:17;;;;;;;6.32;3.05;;;;;;;;;;5092031;28;20039;-68
2023/06/25 08:32:42;;;;;;;7.53;3.50;;;;;;;;;;5095695;28;20031;-69
2023/06/25 08:35:08;;;;;;;9.65;4.00;;;;;;;;;;5096101;28;20030;-67
2023/06/25 08:37:34;;;;;;;6.38;3.30;;;;;;;;;;5096071;28;20012;-71
2023/06/25 08:39:59;;;;;;;4.78;3.28;;;;;;;;;;5108009;28;20449;-71
2023/06/25 08:42:26;;;;;;;7.10;3.50;;;;;;;;;;5098560;28;20035;-70
2023/06/25 08:44:52;;;;;;;7.20;3.70;;;;;;;;;;5116320;28;20027;-73
2023/06/25 08:47:18;;;;;;;6.00;3.67;;;;;;;;;;5097804;28;20375;-73
2023/06/25 08:49:47;;;;;;;4.95;3.40;;;;;;;;;;5095977;28;20031;-71
2023/06/25 08:52:13;;;;;;;5.50;3.40;;;;;;;;;;5095932;28;20077;-68
2023/06/25 08:54:38;;;;;;;8.95;6.22;;;;;;;;;;5095826;28;20024;-68
2023/06/25 08:57:04;;;;;;;8.13;3.90;;;;;;;;;;5096064;28;20024;-67
2023/06/25 08:59:29;;;;;;;6.57;4.00;;;;;;;;;;5095558;28;20027;-67
2023/06/25 09:01:55;;;;;;;5.57;3.58;;;;;;;;;;5095808;28;20032;-68
2023/06/25 09:04:20;;;;;;;7.40;3.75;;;;;;;;;;5095650;28;20024;-70
2023/06/25 09:06:46;;;;;;;6.35;3.53;;;;;;;;;;5095414;28;20412;-67
2023/06/25 09:09:11;;;;;;;7.03;3.47;;;;;;;;;;5095360;28;20032;-68
2023/06/25 09:11:43;;;;;;;5.60;3.40;;;;;;;;;;5095317;28;20035;-67
2023/06/25 09:14:08;;;;;;;5.13;3.38;;;;;;;;;;5095256;28;20424;-68
2023/06/25 09:16:45;;;;;;;4.00;3.30;;;;;;;;;;5095497;28;20052;-67
2023/06/25 09:19:20;;;;;;;5.07;3.05;;;;;;;;;;5095413;28;20027;-68
2023/06/25 09:21:46;;;;;;;5.22;3.30;;;;;;;;;;5095389;28;20103;-68
2023/06/25 09:24:21;;;;;;;4.20;2.90;;;;;;;;;;5095150;28;20028;-67
2023/06/25 09:26:49;;;;;;;5.05;2.97;;;;;;;;;;5095183;28;20024;-68
2023/06/25 09:29:15;;;;;;;3.92;2.90;;;;;;;;;;5095059;28;20116;-69
2023/06/25 09:31:42;;;;;;;5.78;3.15;;;;;;;;;;5094948;28;20464;-67
2023/06/25 09:34:08;;;;;;;4.00;3.20;;;;;;;;;;5095264;28;20054;-67
2023/06/25 09:36:35;;;;;;;5.50;3.25;;;;;;;;;;5095061;28;20060;-67
2023/06/25 09:39:00;;;;;;;5.18;3.20;;;;;;;;;;5098467;28;20473;-69
2023/06/25 09:41:26;;;;;;;4.82;3.42;;;;;;;;;;5115350;28;20046;-69
2023/06/25 09:43:56;;;;;;;5.45;3.38;;;;;;;;;;5114568;28;20023;-67
2023/06/25 09:46:22;;;;;;;5.05;3.20;;;;;;;;;;5112174;28;20027;-67
2023/06/25 09:48:51;;;;;;;4.88;3.28;;;;;;;;;;5095024;28;20020;-67
2023/06/25 09:51:19;;;;;;;6.25;3.33;;;;;;;;;;5094729;28;20035;-67
2023/06/25 09:53:52;;;;;;;6.13;3.13;;;;;;;;;;5094535;28;20031;-67
2023/06/25 09:56:20;;;;;;;5.88;3.55;;;;;;;;;;5093948;28;20024;-67
2023/06/25 09:58:45;;;;;;;4.22;3.35;;;;;;;;;;5094662;28;20024;-67
2023/06/25 10:01:11;;;;;;;6.72;3.47;;;;;;;;;;5094252;28;20030;-67
2023/06/25 10:03:36;;;;;;;5.65;3.17;;;;;;;;;;5094363;28;20370;-68
2023/06/25 10:06:02;;;;;;;5.07;3.20;;;;;;;;;;5094769;28;20445;-67
2023/06/25 10:08:28;;;;;;;7.68;3.40;;;;;;;;;;5074360;28;20032;-67
2023/06/25 10:10:58;;;;;;;5.50;3.10;;;;;;;;;;5081694;28;20101;-67
2023/06/25 10:13:23;;;;;;;;;;;;;;;;;;5094577;28;20554;-67
2023/06/25 10:15:57;;;;;;;5.57;2.97;;;;;;;;;;5094337;28;19912;-67
2023/06/25 10:18:23;;;;;;;4.90;3.30;;;;;;;;;;5094135;28;20358;-67
2023/06/25 10:20:49;;;;;;;6.22;3.38;;;;;;;;;;5094045;28;20047;-67
2023/06/25 10:23:20;;;;;;;4.65;3.22;;;;;;;;;;5094163;28;20378;-67
2023/06/25 10:25:54;;;;;;;4.40;2.95;;;;;;;;;;5093984;28;20027;-67
2023/06/25 10:28:31;;;;;;;6.80;3.35;;;;;;;;;;5094069;28;20102;-67
2023/06/25 10:30:58;;;;;;;5.43;3.17;;;;;;;;;;5093963;28;20032;-68
2023/06/25 10:33:24;;;;;;;5.00;3.00;;;;;;;;;;5075667;28;20052;-69
2023/06/25 10:35:57;;;;;;;5.18;3.40;;;;;;;;;;5093990;28;20067;-67
2023/06/25 10:38:24;;;;;;;5.05;2.90;;;;;;;;;;5093598;28;20080;-66
2023/06/25 10:40:50;;;;;;;5.47;3.20;;;;;;;;;;5112542;28;20032;-67
2023/06/25 10:43:17;;;;;;;6.85;3.40;;;;;;;;;;5114143;28;20088;-67
2023/06/25 10:45:48;;;;;;;4.90;3.60;;;;;;;;;;5114115;28;20102;-66
2023/06/25 10:48:13;;;;;;;6.78;3.38;;;;;;;;;;5098949;28;20044;-67
2023/06/25 10:50:39;;;;;;;7.68;2.95;;;;;;;;;;5093163;28;20444;-67
2023/06/25 10:53:15;;;;;;;6.18;3.30;;;;;;;;;;5093016;28;20051;-67
2023/06/25 10:55:49;;;;;;;7.78;3.25;;;;;;;;;;5090422;28;20483;-67
2023/06/25 10:58:20;;;;;;;5.00;2.92;;;;;;;;;;5091758;28;20020;-67
2023/06/25 11:00:53;;;;;;;4.97;2.80;;;;;;;;;;5093202;28;20039;-67
2023/06/25 11:03:19;;;;;;;5.28;2.90;;;;;;;;;;5093246;28;20024;-67
2023/06/25 11:05:47;;;;;;;6.22;3.03;;;;;;;;;;5093256;28;20035;-67
2023/06/25 11:08:13;;;;;;;5.50;3.15;;;;;;;;;;5093050;28;20373;-68
2023/06/25 11:10:40;;;;;;;5.70;2.92;;;;;;;;;;5093208;28;20028;-67
2023/06/25 11:13:09;;;;;;;4.45;2.88;;;;;;;;;;5093200;28;20034;-68
2023/06/25 11:15:35;;;;;;;;;;;;;;;;;;5093743;28;20020;-69
2023/06/25 11:18:03;;;;;;;4.30;2.72;;;;;;;;;;5092967;28;20373;-67
2023/06/25 11:20:29;;;;;;;4.13;3.10;;;;;;;;;;5093033;28;20335;-68
2023/06/25 11:23:04;;;;;;;5.35;3.00;;;;;;;;;;5093085;28;20461;-68
2023/06/25 11:25:30;;;;;;;5.07;3.13;;;;;;;;;;5093128;28;20073;-67
2023/06/25 11:28:05;;;;;;;4.55;2.75;;;;;;;;;;5093079;28;20038;-70
2023/06/25 11:30:31;;;;;;;6.78;3.15;;;;;;;;;;5093104;28;20458;-69
2023/06/25 11:33:26;;;;;;;4.18;2.80;;;;;;;;;;5093032;28;20028;-70
2023/06/25 11:35:51;;;;;;;4.68;2.97;;;;;;;;;;5075282;28;20032;-69
2023/06/25 11:38:27;;;;;;;5.65;3.33;;;;;;;;;;5092758;28;20035;-68
2023/06/25 11:40:56;;;;;;;4.45;3.03;;;;;;;;;;5112199;28;20373;-70
2023/06/25 11:43:23;;;;;;;7.53;2.80;;;;;;;;;;5113230;28;20356;-71
2023/06/25 11:45:48;;;;;;;3.53;2.58;;;;;;;;;;5113204;28;20110;-71
2023/06/25 11:48:15;;;;;;;5.93;3.05;;;;;;;;;;5089393;28;20434;-72
2023/06/25 11:50:42;;;;;;;5.13;2.92;;;;;;;;;;5092865;28;20020;-71
2023/06/25 11:53:08;;;;;;;4.20;2.67;;;;;;;;;;5092442;28;20028;-70
2023/06/25 11:55:33;;;;;;;5.18;2.78;;;;;;;;;;5092856;28;20024;-70
2023/06/25 11:57:58;;;;;;;5.63;2.70;;;;;;;;;;5092232;28;20020;-68
2023/06/25 12:00:24;;;;;;;4.00;2.78;;;;;;;;;;5092516;28;20054;-69
2023/06/25 12:02:49;;;;;;;4.05;2.70;;;;;;;;;;5092639;28;20020;-67
2023/06/25 12:05:15;;;;;;;3.38;2.78;;;;;;;;;;5092414;28;20024;-70
2023/06/25 12:07:40;;;;;;;3.28;2.70;;;;;;;;;;5075826;28;20020;-67
2023/06/25 12:10:06;;;;;;;4.05;2.60;;;;;;;;;;5092416;28;20024;-67
2023/06/25 12:12:32;;;;;;;3.55;2.67;;;;;;;;;;5092278;28;20543;-69
2023/06/25 12:14:57;;;;;;;5.85;3.05;;;;;;;;;;5092396;28;20032;-68
2023/06/25 12:17:23;;;;;;;4.28;2.85;;;;;;;;;;5092392;28;20027;-68
2023/06/25 12:19:48;;;;;;;6.88;3.17;;;;;;;;;;5092431;28;20077;-68
2023/06/25 12:22:13;;;;;;;4.00;2.70;;;;;;;;;;5091610;28;20016;-70
2023/06/25 12:24:39;;;;;;;5.03;2.70;;;;;;;;;;5092297;28;20032;-67
2023/06/25 12:27:05;;;;;;;5.18;2.70;;;;;;;;;;5092503;28;20089;-68
2023/06/25 12:29:31;;;;;;;4.25;3.00;;;;;;;;;;5092155;28;20016;-68
2023/06/25 12:31:57;;;;;;;4.20;2.55;;;;;;;;;;5092134;28;20040;-68
2023/06/25 12:34:22;;;;;;;3.65;2.72;;;;;;;;;;5092155;28;20107;-68
2023/06/25 12:36:48;;;;;;;4.18;2.83;;;;;;;;;;5092066;28;20115;-67
2023/06/25 12:39:13;;;;;;;3.25;2.70;;;;;;;;;;5097435;28;20020;-69
2023/06/25 12:41:39;;;;;;;5.18;2.90;;;;;;;;;;5112572;28;20032;-67
2023/06/25 12:44:04;;;;;;;4.28;2.72;;;;;;;;;;5112554;28;20389;-70
2023/06/25 12:46:30;;;;;;;5.57;3.10;;;;;;;;;;5093779;28;20054;-68
2023/06/25 12:48:55;;;;;;;6.25;2.70;;;;;;;;;;5112800;28;20027;-71
2023/06/25 12:51:21;;;;;;;3.80;2.67;;;;;;;;;;5112162;28;20465;-67
2023/06/25 12:53:46;;;;;;;4.45;3.13;;;;;;;;;;5112413;28;20118;-67
2023/06/25 12:56:12;;;;;;;4.53;2.70;;;;;;;;;;5112491;28;20031;-68
2023/06/25 12:58:37;;;;;;;3.70;2.50;;;;;;;;;;5112515;28;20024;-68
2023/06/25 13:01:03;;;;;;;4.32;3.03;;;;;;;;;;5109822;28;20023;-68
2023/06/25 13:03:28;;;;;;;8.68;3.08;;;;;;;;;;5092108;28;20030;-68
2023/06/25 13:05:54;;;;;;;8.75;2.67;;;;;;;;;;5091895;28;20109;-68
2023/06/25 13:08:19;;;;;;;5.32;3.10;;;;;;;;;;5091775;28;20029;-72
2023/06/25 13:10:45;;;;;;;3.85;2.83;;;;;;;;;;5093955;28;20122;-72
2023/06/25 13:13:10;;;;;;;5.78;2.90;;;;;;;;;;5092106;28;20024;-69
2023/06/25 13:15:35;;;;;;;3.33;2.53;;;;;;;;;;5092044;28;20020;-70
2023/06/25 13:18:01;;;;;;;3.60;2.70;;;;;;;;;;5092717;28;20385;-69
2023/06/25 13:20:27;;;;;;;3.78;2.80;;;;;;;;;;5095303;28;20051;-66
2023/06/25 13:22:53;;;;;;;4.72;3.10;;;;;;;;;;5095387;28;20035;-67
2023/06/25 13:25:18;;;;;;;6.15;3.70;;;;;;;;;;5095210;28;20032;-69
2023/06/25 13:27:44;;;;;;;6.43;4.13;;;;;;;;;;5095251;28;20030;-73
2023/06/25 13:30:10;;;;;;;6.00;4.22;;;;;;;;;;5095123;28;20047;-67
2023/06/25 13:32:36;;;;;;;6.30;4.30;;;;;;;;;;5095043;28;20036;-67
2023/06/25 13:35:02;;;;;;;5.53;4.35;;;;;;;;;;5094887;28;20024;-66
2023/06/25 13:37:27;;;;;;;5.85;4.13;;;;;;;;;;5094996;28;20024;-68
2023/06/25 13:39:53;;;;;;;5.63;4.43;;;;;;;;;;5105993;28;20034;-67
2023/06/25 13:42:24;;;;;;;6.40;4.20;;;;;;;;;;5115478;28;20042;-67
2023/06/25 13:44:49;;;;;;;7.63;4.43;;;;;;;;;;5115565;28;20030;-67
2023/06/25 13:47:15;;;;;;;6.90;4.55;;;;;;;;;;5115251;28;20130;-67
2023/06/25 13:49:40;;;;;;;9.48;5.13;;;;;;;;;;5115281;28;20039;-67
2023/06/25 13:52:07;;;;;;;7.43;4.63;;;;;;;;;;5115017;28;20020;-68
2023/06/25 13:54:32;;;;;;;8.27;4.60;;;;;;;;;;5114984;28;20032;-67
2023/06/25 13:56:58;;;;;;;6.68;4.60;;;;;;;;;;5115064;28;20030;-67
2023/06/25 13:59:23;;;;;;;9.82;6.72;;;;;;;;;;5115133;28;20462;-68
2023/06/25 14:01:49;;;;;;;6.80;4.45;;;;;;;;;;5105757;28;20020;-69
2023/06/25 14:04:14;;;;;;;11.65;5.05;;;;;;;;;;5094351;28;20046;-68
2023/06/25 14:06:40;;;;;;;50.45;10.32;;;;;;;;;;5094556;28;20070;-68
2023/06/25 14:09:06;;;;;;;39.42;10.25;;;;;;;;;;5093140;28;20145;-66
2023/06/25 14:11:31;;;;;;;115.65;20.15;;;;;;;;;;5092374;28;20016;-68
2023/06/25 14:13:57;;;;;;;6.40;4.45;;;;;;;;;;5092270;28;20043;-68
2023/06/25 14:16:22;;;;;;;31.27;8.70;;;;;;;;;;5092041;28;20379;-67
2023/06/25 14:18:48;;;;;;;78.15;17.65;;;;;;;;;;5092550;28;20458;-68
2023/06/25 14:21:13;;;;;;;28.25;8.95;;;;;;;;;;5092540;28;20051;-68
2023/06/25 14:23:39;;;;;;;17.65;7.00;;;;;;;;;;5093108;28;20012;-68
2023/06/25 14:26:04;;;;;;;7.85;4.50;;;;;;;;;;5094249;28;20085;-68
2023/06/25 14:28:30;;;;;;;17.77;6.53;;;;;;;;;;5093855;28;20581;-68
2023/06/25 14:30:56;;;;;;;6.75;4.32;;;;;;;;;;5093822;28;20043;-69
2023/06/25 14:33:22;;;;;;;12.38;6.28;;;;;;;;;;5093794;28;20036;-68
2023/06/25 14:35:47;;;;;;;7.78;4.45;;;;;;;;;;5093924;28;20038;-68